Time;durP1;ratioP1;P1;durP2;ratioP2;P2;SDS_P1;SDS_P2;PMS_P1;PMS_P2;Temp;Humidity;BMP_temperature;BMP_pressure;BME280_temperature;BME280_humidity;BME280_pressure;Samples;Min_cycle;Max_cycle;Signal;HPM_P1;HPM_P2
2022/06/06 00:00:50;;;;;;;;;;;;;;;18.15;100.00;99449.91;5011836;28;861;-64
2022/06/06 00:03:18;;;;;;;;;;;;;;;18.17;100.00;99437.00;5011927;28;878;-63
2022/06/06 00:05:47;;;;;;;;;;;;;;;18.34;100.00;99433.94;5011774;28;882;-64
2022/06/06 00:08:14;;;;;;;;;;;;;;;18.36;100.00;99432.22;5011819;28;803;-64
2022/06/06 00:10:41;;;;;;;;;;;;;;;18.38;100.00;99440.16;5011391;28;1945;-63
2022/06/06 00:13:09;;;;;;;;;;;;;;;18.45;100.00;99436.25;5011498;28;956;-63
2022/06/06 00:15:35;;;;;;;;;;;;;;;18.54;100.00;99444.66;5011366;28;870;-64
2022/06/06 00:18:03;;;;;;;;;;;;;;;18.52;100.00;99442.34;5011481;28;813;-64
2022/06/06 00:20:31;;;;;;;;;;;;;;;18.47;100.00;99431.75;5011599;28;811;-64
2022/06/06 00:22:58;;;;;;;;;;;;;;;18.43;100.00;99431.13;5011398;28;886;-65
2022/06/06 00:25:25;;;;;;;;;;;;;;;18.36;100.00;99425.84;5011722;28;846;-64
2022/06/06 00:27:51;;;;;;;;;;;;;;;18.24;100.00;99407.94;5011330;28;819;-64
2022/06/06 00:30:18;;;;;;;;;;;;;;;18.11;100.00;99421.31;5012995;28;2001;-64
2022/06/06 00:35:30;;;;;;;;;;;;;;;17.68;100.00;99378.31;5031273;28;621;-64
2022/06/06 00:37:57;;;;;;;;;;;;;;;17.79;100.00;99395.41;5034733;28;843;-65
2022/06/06 00:40:25;;;;;;;;;;;;;;;17.73;100.00;99391.69;5034926;28;870;-65
2022/06/06 00:42:51;;;;;;;;;;;;;;;17.70;100.00;99398.97;5034580;28;882;-68
2022/06/06 00:45:19;;;;;;;;;;;;;;;17.69;100.00;99402.25;5034583;28;811;-65
2022/06/06 00:47:48;;;;;;;;;;;;;;;17.63;100.00;99401.28;5034586;28;815;-65
2022/06/06 00:50:18;;;;;;;;;;;;;;;17.57;100.00;99403.91;5034359;28;1898;-66
2022/06/06 00:52:45;;;;;;;;;;;;;;;17.64;100.00;99381.25;5034719;28;830;-65
2022/06/06 00:55:14;;;;;;;;;;;;;;;17.71;100.00;99380.22;5016586;28;1245;-67
2022/06/06 00:57:44;;;;;;;;;;;;;;;17.82;100.00;99374.19;5034241;28;874;-67
2022/06/06 01:00:13;;;;;;;;;;;;;;;17.82;100.00;99377.78;5034256;28;854;-64
2022/06/06 01:02:40;;;;;;;;;;;;;;;17.78;100.00;99376.34;5034231;28;799;-64
2022/06/06 01:05:07;;;;;;;;;;;;;;;17.75;100.00;99383.59;5016357;28;1370;-65
2022/06/06 01:07:33;;;;;;;;;;;;;;;17.73;100.00;99386.09;5034224;28;815;-65
2022/06/06 01:10:00;;;;;;;;;;;;;;;17.97;100.00;99385.56;5034090;28;881;-65
2022/06/06 01:12:31;;;;;;;;;;;;;;;18.21;100.00;99380.16;5033941;28;1882;-65
2022/06/06 01:15:00;;;;;;;;;;;;;;;18.28;100.00;99377.03;5033902;28;827;-64
2022/06/06 01:17:46;;;;;;;;;;;;;;;18.27;100.00;99364.31;5033936;28;807;-62
2022/06/06 01:20:24;;;;;;;;;;;;;;;18.36;100.00;99364.31;5034152;28;870;-67
2022/06/06 01:23:09;;;;;;;;;;;;;;;18.40;100.00;99364.16;5034159;28;885;-63
2022/06/06 01:25:54;;;;;;;;;;;;;;;18.40;100.00;99352.97;5016257;28;873;-64
2022/06/06 01:28:38;;;;;;;;;;;;;;;18.34;100.00;99353.56;5033852;28;823;-63
2022/06/06 01:31:07;;;;;;;;;;;;;;;18.15;100.00;99358.38;5033619;28;1910;-63
2022/06/06 01:33:52;;;;;;;;;;;;;;;17.97;100.00;99361.19;5034387;28;838;-63
2022/06/06 01:36:19;;;;;;;;;;;;;;;17.79;100.00;99370.25;5033535;28;846;-63
2022/06/06 01:38:46;;;;;;;;;;;;;;;17.61;100.00;99365.41;5033537;28;846;-63
2022/06/06 01:41:18;;;;;;;;;;;;;;;17.52;100.00;99368.19;5033501;28;882;-63
2022/06/06 01:43:50;;;;;;;;;;;;;;;17.47;100.00;99371.56;5033661;28;841;-63
2022/06/06 01:46:22;;;;;;;;;;;;;;;17.44;100.00;99373.28;5033321;28;938;-63
2022/06/06 01:48:50;;;;;;;;;;;;;;;17.45;100.00;99376.84;5033107;28;882;-63
2022/06/06 01:51:21;;;;;;;;;;;;;;;17.50;100.00;99377.03;5033204;28;1897;-63
2022/06/06 01:53:48;;;;;;;;;;;;;;;17.65;100.00;99374.44;5033241;28;850;-63
2022/06/06 01:56:18;;;;;;;;;;;;;;;18.05;100.00;99372.81;5033222;28;889;-64
2022/06/06 01:58:45;;;;;;;;;;;;;;;18.39;100.00;99357.00;5033391;28;843;-63
2022/06/06 02:01:11;;;;;;;;;;;;;;;18.55;100.00;99354.66;5033179;28;936;-63
2022/06/06 02:03:38;;;;;;;;;;;;;;;18.70;100.00;99345.63;5033033;28;818;-64
2022/06/06 02:06:05;;;;;;;;;;;;;;;18.82;100.00;99319.50;5033000;28;894;-61
2022/06/06 02:08:32;;;;;;;;;;;;;;;18.92;100.00;99320.22;5033013;28;862;-63
2022/06/06 02:10:59;;;;;;;;;;;;;;;18.96;100.00;99323.63;5032925;28;1954;-63
2022/06/06 02:13:25;;;;;;;;;;;;;;;18.97;100.00;99328.78;5032814;28;803;-60
2022/06/06 02:15:52;;;;;;;;;;;;;;;18.98;100.00;99329.53;5032780;28;873;-64
2022/06/06 02:18:19;;;;;;;;;;;;;;;19.00;100.00;99345.88;5032961;28;823;-60
2022/06/06 02:20:46;;;;;;;;;;;;;;;18.99;100.00;99347.91;5032873;28;815;-62
2022/06/06 02:23:12;;;;;;;;;;;;;;;19.01;100.00;99356.63;5032759;28;866;-61
2022/06/06 02:25:39;;;;;;;;;;;;;;;19.04;100.00;99389.28;5032668;28;846;-61
2022/06/06 02:28:06;;;;;;;;;;;;;;;19.07;100.00;99418.34;5032575;28;933;-63
2022/06/06 02:30:34;;;;;;;;;;;;;;;19.09;100.00;99439.03;5032447;28;1905;-61
2022/06/06 02:33:01;;;;;;;;;;;;;;;19.19;100.00;99451.00;5032446;28;1203;-59
2022/06/06 02:35:29;;;;;;;;;;;;;;;19.21;100.00;99484.16;5032503;28;874;-60
2022/06/06 02:37:56;;;;;;;;;;;;;;;19.23;100.00;99493.66;5032446;28;792;-62
2022/06/06 02:40:23;;;;;;;;;;;;;;;19.12;100.00;99491.34;5032453;28;854;-60
2022/06/06 02:42:50;;;;;;;;;;;;;;;18.40;100.00;99392.13;5032303;28;886;-61
2022/06/06 02:45:17;;;;;;;;;;;;;;;17.95;100.00;99336.47;5032165;28;827;-62
2022/06/06 02:47:46;;;;;;;;;;;;;;;17.72;100.00;99264.38;5032417;28;807;-61
2022/06/06 02:50:15;;;;;;;;;;;;;;;17.62;100.00;99227.25;5032598;28;1229;-62
2022/06/06 02:52:43;;;;;;;;;;;;;;;17.58;100.00;99228.66;5032397;28;1886;-65
2022/06/06 02:55:12;;;;;;;;;;;;;;;17.36;100.00;99232.34;5032138;28;870;-59
2022/06/06 02:57:41;;;;;;;;;;;;;;;17.30;100.00;99240.56;5032041;28;866;-60
2022/06/06 03:00:11;;;;;;;;;;;;;;;17.34;100.00;99269.09;5031363;28;905;-60
2022/06/06 03:02:39;;;;;;;;;;;;;;;17.40;100.00;99288.06;5031984;28;884;-60
2022/06/06 03:05:08;;;;;;;;;;;;;;;17.47;100.00;99291.31;5031906;28;882;-58
2022/06/06 03:08:02;;;;;;;;;;;;;;;17.49;100.00;99277.69;5031889;28;907;-59
2022/06/06 03:10:32;;;;;;;;;;;;;;;17.52;100.00;99289.97;5028993;28;1924;-61
2022/06/06 03:12:59;;;;;;;;;;;;;;;17.54;100.00;99282.66;5031887;28;881;-60
2022/06/06 03:15:38;;;;;;;;;;;;;;;17.57;100.00;99294.16;5032269;28;827;-60
2022/06/06 03:21:13;;;;;;;;;;;;;;;17.84;100.00;99327.00;5032108;28;597;-63
2022/06/06 03:23:59;;;;;;;;;;;;;;;18.04;100.00;99321.72;5031948;28;869;-60
2022/06/06 03:26:33;;;;;;;;;;;;;;;18.19;100.00;99321.88;5031687;28;866;-60
2022/06/06 03:29:20;;;;;;;;;;;;;;;18.35;100.00;99332.75;5031604;28;943;-60
2022/06/06 03:31:50;;;;;;;;;;;;;;;18.48;100.00;99318.59;5031111;28;1976;-60
2022/06/06 03:34:24;;;;;;;;;;;;;;;18.66;100.00;99314.22;5013898;28;901;-60
2022/06/06 03:37:07;;;;;;;;;;;;;;;18.79;100.00;99322.44;5031711;28;814;-61
2022/06/06 03:39:46;;;;;;;;;;;;;;;18.98;100.00;99329.53;5014128;28;775;-61
2022/06/06 03:42:22;;;;;;;;;;;;;;;19.25;100.00;99325.88;5031476;28;822;-61
2022/06/06 03:45:11;;;;;;;;;;;;;;;19.71;100.00;99336.84;5031727;28;827;-61
2022/06/06 03:47:47;;;;;;;;;;;;;;;19.99;100.00;99347.88;5031935;28;760;-62
2022/06/06 03:50:33;;;;;;;;;;;;;;;20.05;100.00;99343.16;5031348;28;914;-62
2022/06/06 03:53:09;;;;;;;;;;;;;;;19.89;100.00;99341.56;5031639;28;830;-61
2022/06/06 03:55:47;;;;;;;;;;;;;;;19.62;100.00;99347.31;5031420;28;881;-63
2022/06/06 03:58:17;;;;;;;;;;;;;;;19.39;100.00;99352.41;5031420;28;862;-62
2022/06/06 04:00:45;;;;;;;;;;;;;;;19.15;100.00;99352.34;5031518;28;802;-63
2022/06/06 04:03:13;;;;;;;;;;;;;;;19.00;100.00;99371.84;5031263;28;870;-61
2022/06/06 04:05:40;;;;;;;;;;;;;;;18.87;100.00;99372.03;5031590;28;972;-61
2022/06/06 04:08:09;;;;;;;;;;;;;;;18.76;100.00;99374.53;5031177;28;856;-62
2022/06/06 04:10:45;;;;;;;;;;;;;;;18.70;100.00;99379.97;5032510;28;1885;-63
2022/06/06 04:13:30;;;;;;;;;;;;;;;18.69;100.00;99405.63;5035325;28;830;-63
2022/06/06 04:16:19;;;;;;;;;;;;;;;18.71;100.00;99403.13;5035066;28;882;-62
2022/06/06 04:18:51;;;;;;;;;;;;;;;18.76;100.00;99414.50;5034728;28;1396;-62
2022/06/06 04:21:21;;;;;;;;;;;;;;;18.88;100.00;99412.81;5035044;28;870;-64
2022/06/06 04:23:57;;;;;;;;;;;;;;;18.91;100.00;99420.25;5035021;28;847;-64
2022/06/06 04:26:43;;;;;;;;;;;;;;;18.89;100.00;99419.19;5034896;28;850;-63
2022/06/06 04:29:17;;;;;;;;;;;;;;;18.86;100.00;99415.31;5034893;28;979;-65
2022/06/06 04:31:51;;;;;;;;;;;;;;;18.87;100.00;99419.63;5034882;28;1906;-64
2022/06/06 04:34:30;;;;;;;;;;;;;;;18.90;100.00;99415.88;5034834;28;807;-62
2022/06/06 04:37:08;;;;;;;;;;;;;;;18.87;100.00;99422.44;5034609;28;871;-66
2022/06/06 04:39:53;;;;;;;;;;;;;;;18.77;100.00;99420.88;5017012;28;1657;-65
2022/06/06 04:42:40;;;;;;;;;;;;;;;18.69;100.00;99430.81;5034515;28;866;-67
2022/06/06 04:45:21;;;;;;;;;;;;;;;18.78;100.00;99433.66;5034161;28;1200;-66
2022/06/06 04:47:49;;;;;;;;;;;;;;;18.91;100.00;99431.47;5034858;28;811;-68
2022/06/06 04:50:17;;;;;;;;;;;;;;;19.03;100.00;99415.72;5034526;28;890;-70
2022/06/06 04:52:53;;;;;;;;;;;;;;;19.08;100.00;99417.91;5034731;28;1886;-69
2022/06/06 04:55:22;;;;;;;;;;;;;;;19.11;100.00;99414.13;5034341;28;866;-72
2022/06/06 04:57:51;;;;;;;;;;;;;;;19.17;100.00;99412.25;5034380;28;894;-73
2022/06/06 05:00:18;;;;;;;;;;;;;;;19.21;100.00;99437.31;5034193;28;851;-70
2022/06/06 05:02:45;;;;;;;;;;;;;;;19.15;100.00;99447.59;5034254;28;870;-69
2022/06/06 05:05:11;;;;;;;;;;;;;;;19.14;100.00;99446.06;5034497;28;858;-75
2022/06/06 05:07:59;;;;;;;;;;;;;;;19.18;100.00;99446.66;5016645;28;1074;-72
2022/06/06 05:10:34;;;;;;;;;;;;;;;19.18;100.00;99450.25;5034249;28;802;-70
2022/06/06 05:13:19;;;;;;;;;;;;;;;19.13;100.00;99458.50;5016319;28;1291;-64
2022/06/06 05:15:58;;;;;;;;;;;;;;;19.03;100.00;99468.91;5016505;28;1135;-64
2022/06/06 05:18:36;;;;;;;;;;;;;;;18.93;100.00;99481.41;5034007;28;819;-71
2022/06/06 05:21:06;;;;;;;;;;;;;;;18.85;100.00;99468.97;5033920;28;835;-67
2022/06/06 05:23:41;;;;;;;;;;;;;;;18.80;100.00;99464.75;5033551;28;886;-67
2022/06/06 05:26:28;;;;;;;;;;;;;;;18.76;100.00;99478.88;5033789;28;858;-70
2022/06/06 05:29:14;;;;;;;;;;;;;;;18.68;100.00;99502.06;4976605;28;1519;-70
2022/06/06 05:31:46;;;;;;;;;;;;;;;18.52;100.00;99494.72;5033421;28;1901;-68
2022/06/06 05:34:19;;;;;;;;;;;;;;;18.39;100.00;99519.25;5033735;28;906;-63
2022/06/06 05:37:02;;;;;;;;;;;;;;;18.27;100.00;99518.94;5033593;28;854;-66
2022/06/06 05:39:43;;;;;;;;;;;;;;;18.11;100.00;99510.78;5033534;28;1000;-66
2022/06/06 05:42:12;;;;;;;;;;;;;;;17.96;100.00;99524.56;5033520;28;806;-66
2022/06/06 05:44:57;;;;;;;;;;;;;;;17.57;100.00;99556.81;5033561;28;803;-61
2022/06/06 05:47:39;;;;;;;;;;;;;;;17.14;100.00;99567.53;5033469;28;933;-63
2022/06/06 05:50:24;;;;;;;;;;;;;;;16.80;100.00;99568.31;5015551;28;850;-68
2022/06/06 05:53:04;;;;;;;;;;;;;;;16.40;100.00;99577.97;5033267;28;1890;-64
2022/06/06 05:55:41;;;;;;;;;;;;;;;16.23;100.00;99570.94;5033270;28;795;-64
2022/06/06 05:58:27;;;;;;;;;;;;;;;16.09;100.00;99572.97;5033211;28;894;-60
2022/06/06 06:01:03;;;;;;;;;;;;;;;15.71;100.00;99567.31;5033153;28;886;-58
2022/06/06 06:03:49;;;;;;;;;;;;;;;15.46;100.00;99574.38;5033316;28;881;-62
2022/06/06 06:06:35;;;;;;;;;;;;;;;15.36;100.00;99575.47;5033056;28;926;-60
2022/06/06 06:09:15;;;;;;;;;;;;;;;15.38;100.00;99594.53;5033343;28;846;-61
2022/06/06 06:12:19;;;;;;;;;;;;;;;15.45;100.00;99602.72;5032817;28;1953;-67
2022/06/06 06:14:57;;;;;;;;;;;;;;;15.44;100.00;99612.28;4952770;29;1519;-65
2022/06/06 06:17:31;;;;;;;;;;;;;;;15.48;100.00;99622.09;4952623;29;1013;-62
2022/06/06 06:20:05;;;;;;;;;;;;;;;15.51;100.00;99618.44;4952576;29;887;-60
2022/06/06 06:22:50;;;;;;;;;;;;;;;15.48;100.00;99608.16;4952713;29;964;-59
2022/06/06 06:25:19;;;;;;;;;;;;;;;15.54;100.00;99596.50;4952568;29;855;-59
2022/06/06 06:27:47;;;;;;;;;;;;;;;15.52;100.00;99589.34;4952437;29;968;-59
2022/06/06 06:30:15;;;;;;;;;;;;;;;15.56;100.00;99585.69;4952144;29;1402;-59
2022/06/06 06:32:55;;;;;;;;;;;;;;;15.63;100.00;99579.91;4952391;29;1918;-58
2022/06/06 06:35:37;;;;;;;;;;;;;;;15.75;100.00;99570.03;4951564;29;1102;-58
2022/06/06 06:38:16;;;;;;;;;;;;;;;15.88;100.00;99551.31;4952368;29;827;-57
2022/06/06 06:40:54;;;;;;;;;;;;;;;15.96;100.00;99532.38;4952276;29;824;-58
2022/06/06 06:43:34;;;;;;;;;;;;;;;16.25;100.00;99529.47;4952362;29;930;-57
2022/06/06 06:46:05;;;;;;;;;;;;;;;16.63;100.00;99511.88;4952220;29;847;-57
2022/06/06 06:48:36;;;;;;;;;;;;;;;16.99;100.00;99505.84;4969859;28;1064;-57
2022/06/06 06:51:10;;;;;;;;;;;;;;;17.43;100.00;99502.22;4993040;28;1965;-57
2022/06/06 06:53:40;;;;;;;;;;;;;;;17.94;100.00;99521.44;4992862;28;879;-58
2022/06/06 06:56:22;;;;;;;;;;;;;;;18.44;100.00;99536.22;4992814;28;796;-58
2022/06/06 06:59:15;;;;;;;;;;;;;;;18.70;100.00;99542.31;4992681;28;922;-58
2022/06/06 07:10:48;;;;;;;;;;;;;;;19.81;99.52;99572.34;4992719;28;1899;-59
2022/06/06 07:13:33;;;;;;;;;;;;;;;20.21;98.26;99568.47;4992588;28;859;-60
2022/06/06 07:16:20;;;;;;;;;;;;;;;21.13;95.68;99593.94;4992534;28;815;-59
2022/06/06 07:18:51;;;;;;;;;;;;;;;21.51;87.95;99608.50;4992459;28;812;-61
2022/06/06 07:21:18;;;;;;;;;;;;;;;21.36;86.47;99606.41;4992677;28;834;-60
2022/06/06 07:23:48;;;;;;;;;;;;;;;21.25;87.85;99602.59;4992451;28;977;-61
2022/06/06 07:26:15;;;;;;;;;;;;;;;21.05;89.30;99615.25;4975248;28;708;-61
2022/06/06 07:28:42;;;;;;;;;;;;;;;21.35;88.64;99606.88;4991344;28;1058;-62
2022/06/06 07:31:17;;;;;;;;;;;;;;;21.33;87.88;99609.41;4998743;28;1906;-62
2022/06/06 07:33:47;;;;;;;;;;;;;;;21.50;89.65;99618.97;5012154;28;822;-62
2022/06/06 07:36:29;;;;;;;;;;;;;;;21.63;87.51;99618.69;5012153;28;843;-62
2022/06/06 07:39:02;;;;;;;;;;;;;;;22.43;87.47;99627.22;5011755;28;842;-63
2022/06/06 07:41:29;;;;;;;;;;;;;;;23.45;80.05;99634.97;5011833;28;826;-62
2022/06/06 07:44:05;;;;;;;;;;;;;;;23.52;82.50;99633.75;5011865;28;815;-62
2022/06/06 07:46:44;;;;;;;;;;;;;;;23.68;79.14;99646.47;5017150;28;791;-63
2022/06/06 07:49:32;;;;;;;;;;;;;;;23.57;81.51;99650.72;5016966;28;1331;-63
2022/06/06 07:52:07;;;;;;;;;;;;;;;23.55;79.44;99644.81;5018193;28;1886;-63
2022/06/06 07:54:53;;;;;;;;;;;;;;;23.21;82.92;99658.53;5018308;28;838;-65
2022/06/06 07:57:23;;;;;;;;;;;;;;;23.12;83.90;99657.91;5018258;28;858;-65
2022/06/06 08:00:01;;;;;;;;;;;;;;;23.67;81.70;99651.34;5018203;28;869;-66
2022/06/06 08:02:46;;;;;;;;;;;;;;;26.02;75.80;99641.97;5018259;28;795;-65
2022/06/06 08:05:32;;;;;;;;;;;;;;;26.99;71.39;99645.44;5018585;28;768;-65
2022/06/06 08:08:00;;;;;;;;;;;;;;;27.60;72.02;99649.34;5018099;28;799;-65
2022/06/06 08:10:34;;;;;;;;;;;;;;;28.78;69.83;99650.47;5016914;28;878;-65
2022/06/06 08:13:16;;;;;;;;;;;;;;;28.32;69.79;99652.97;5018181;28;850;-66
2022/06/06 08:15:49;;;;;;;;;;;;;;;26.59;73.51;99648.41;5018380;28;806;-65
2022/06/06 08:18:16;;;;;;;;;;;;;;;25.45;79.55;99652.41;5018019;28;853;-65
2022/06/06 08:20:50;;;;;;;;;;;;;;;24.79;79.75;99647.94;5018086;28;816;-64
2022/06/06 08:23:19;;;;;;;;;;;;;;;24.08;81.23;99656.91;5017935;28;795;-65
2022/06/06 08:25:47;;;;;;;;;;;;;;;23.59;80.71;99653.06;5018021;28;886;-65
2022/06/06 08:28:16;;;;;;;;;;;;;;;23.52;83.83;99650.69;5017909;28;808;-65
2022/06/06 08:30:44;;;;;;;;;;;;;;;23.49;82.10;99646.03;5022087;28;1902;-65
2022/06/06 08:33:12;;;;;;;;;;;;;;;23.06;82.87;99654.22;5037662;28;823;-65
2022/06/06 08:35:58;;;;;;;;;;;;;;;23.12;83.34;99660.72;5037540;28;847;-66
2022/06/06 08:38:25;;;;;;;;;;;;;;;23.21;82.88;99657.75;5037496;28;882;-65
2022/06/06 08:41:08;;;;;;;;;;;;;;;23.40;79.99;99661.81;5037598;28;847;-65
2022/06/06 08:43:44;;;;;;;;;;;;;;;23.34;79.10;99674.31;5037612;28;823;-65
2022/06/06 08:46:10;;;;;;;;;;;;;;;23.58;75.29;99674.09;5038216;28;842;-64
2022/06/06 08:48:51;;;;;;;;;;;;;;;24.14;72.78;99674.66;5037659;28;866;-64
2022/06/06 08:51:27;;;;;;;;;;;;;;;24.49;70.11;99670.09;5037452;28;1893;-64
2022/06/06 08:54:00;;;;;;;;;;;;;;;24.26;74.09;99672.72;5037649;28;854;-65
2022/06/06 08:56:44;;;;;;;;;;;;;;;24.12;75.84;99673.63;5036340;28;834;-65
2022/06/06 08:59:23;;;;;;;;;;;;;;;24.05;77.91;99672.03;5034437;28;826;-65
2022/06/06 09:02:03;;;;;;;;;;;;;;;24.39;75.01;99667.44;5034268;28;835;-65
2022/06/06 09:04:51;;;;;;;;;;;;;;;25.46;73.93;99658.81;5034318;28;873;-65
2022/06/06 09:07:36;;;;;;;;;;;;;;;26.97;68.80;99662.22;5034102;28;818;-64
2022/06/06 09:10:03;;;;;;;;;;;;;;;26.73;66.98;99654.28;5034167;28;854;-64
2022/06/06 09:12:54;;;;;;;;;;;;;;;27.12;67.35;99661.91;5034077;28;1937;-64
2022/06/06 09:15:37;;;;;;;;;;;;;;;26.93;70.91;99659.66;5034049;28;1067;-64
2022/06/06 09:18:22;;;;;;;;;;;;;;;26.67;66.57;99662.81;5034380;28;891;-63
2022/06/06 09:21:07;;;;;;;;;;;;;;;26.18;73.99;99654.59;5034005;28;818;-63
2022/06/06 09:23:58;;;;;;;;;;;;;;;25.66;74.94;99666.31;5034007;28;1076;-63
2022/06/06 09:26:55;;;;;;;;;;;;;;;25.12;77.36;99652.22;5034397;28;834;-63
2022/06/06 09:29:43;;;;;;;;;;;;;;;24.28;76.96;99658.09;4953490;29;1196;-63
2022/06/06 09:32:27;;;;;;;;;;;;;;;23.79;79.30;99652.25;4953400;29;1911;-61
2022/06/06 09:35:13;;;;;;;;;;;;;;;23.32;79.02;99665.56;4953662;29;843;-63
2022/06/06 09:37:48;;;;;;;;;;;;;;;23.41;77.89;99656.97;4953599;29;918;-63
2022/06/06 09:40:18;;;;;;;;;;;;;;;23.88;79.72;99649.28;4953447;29;949;-63
2022/06/06 09:43:13;;;;;;;;;;;;;;;25.08;78.12;99652.47;4953650;29;828;-63
2022/06/06 09:45:55;;;;;;;;;;;;;;;25.89;77.48;99635.28;4915161;29;1086;-62
2022/06/06 09:48:39;;;;;;;;;;;;;;;26.03;71.90;99632.19;4915234;29;828;-62
2022/06/06 09:51:13;;;;;;;;;;;;;;;25.90;67.30;99645.28;4915042;29;1981;-62
2022/06/06 09:59:50;;;;;;;;;;;;;;;24.32;72.32;99659.41;4914888;29;960;-59
2022/06/06 10:30:37;;;;;;;;;;;;;;;24.83;71.47;99652.06;5024029;28;1328;-60
2022/06/06 10:33:28;;;;;;;;;;;;;;;24.41;71.70;99652.78;5032539;28;863;-62
2022/06/06 10:36:19;;;;;;;;;;;;;;;25.49;69.28;99640.03;5032552;28;798;-63
2022/06/06 10:38:46;;;;;;;;;;;;;;;26.31;70.85;99622.91;5032522;28;962;-62
2022/06/06 10:41:26;;;;;;;;;;;;;;;27.06;71.70;99630.75;5032515;28;795;-63
2022/06/06 10:44:19;;;;;;;;;;;;;;;27.24;73.08;99638.69;5032687;28;866;-62
2022/06/06 10:46:57;;;;;;;;;;;;;;;26.28;72.02;99647.34;5029306;28;1397;-62
2022/06/06 10:49:33;;;;;;;;;;;;;;;25.09;73.29;99631.38;5032311;28;834;-62
2022/06/06 10:52:03;;;;;;;;;;;;;;;24.56;75.14;99650.63;5032265;28;2013;-62
2022/06/06 10:54:30;;;;;;;;;;;;;;;24.51;76.93;99654.19;5032199;28;854;-61
2022/06/06 10:57:08;;;;;;;;;;;;;;;24.62;77.39;99651.47;5032238;28;867;-61
2022/06/06 11:00:00;;;;;;;;;;;;;;;24.72;76.57;99649.19;5032099;28;802;-61
2022/06/06 11:02:41;;;;;;;;;;;;;;;25.23;75.10;99638.94;5014517;28;862;-63
2022/06/06 11:05:08;;;;;;;;;;;;;;;25.71;73.41;99647.81;5032025;28;830;-62
2022/06/06 11:07:53;;;;;;;;;;;;;;;26.32;73.61;99637.84;5031981;28;846;-63
2022/06/06 11:10:36;;;;;;;;;;;;;;;25.92;69.91;99635.00;5031984;28;830;-63
2022/06/06 11:13:18;;;;;;;;;;;;;;;25.49;73.77;99620.25;5032168;28;1961;-62
2022/06/06 11:16:06;;;;;;;;;;;;;;;25.70;72.98;99623.63;5031859;28;795;-63
2022/06/06 11:18:42;;;;;;;;;;;;;;;25.72;71.14;99613.34;5031265;28;1913;-64
2022/06/06 11:21:31;;;;;;;;;;;;;;;25.62;71.47;99612.03;5031308;28;823;-63
2022/06/06 11:24:20;;;;;;;;;;;;;;;25.53;68.94;99604.56;5031719;28;834;-62
2022/06/06 11:26:47;;;;;;;;;;;;;;;25.97;71.19;99608.00;5031612;28;886;-63
2022/06/06 11:29:37;;;;;;;;;;;;;;;26.62;69.68;99607.66;5031484;28;1197;-62
2022/06/06 11:32:10;;;;;;;;;;;;;;;26.97;63.96;99592.13;5021216;28;1898;-63
2022/06/06 11:34:40;;;;;;;;;;;;;;;27.62;64.84;99598.50;5032112;28;834;-63
2022/06/06 11:37:25;;;;;;;;;;;;;;;28.11;60.60;99601.50;5013944;28;856;-63
2022/06/06 11:39:55;;;;;;;;;;;;;;;28.16;58.19;99597.81;5031804;28;897;-63
2022/06/06 11:42:25;;;;;;;;;;;;;;;28.57;58.06;99601.84;5031565;28;947;-64
2022/06/06 11:45:10;;;;;;;;;;;;;;;28.63;57.06;99596.88;5031423;28;914;-63
2022/06/06 11:47:45;;;;;;;;;;;;;;;28.76;56.68;99602.66;5031524;28;909;-64
2022/06/06 11:50:29;;;;;;;;;;;;;;;28.82;53.92;99602.59;5031477;28;881;-64
2022/06/06 11:53:19;;;;;;;;;;;;;;;29.58;55.61;99600.59;5031349;28;1936;-63
2022/06/06 11:56:04;;;;;;;;;;;;;;;29.47;56.50;99593.00;5031491;28;799;-64
2022/06/06 11:58:54;;;;;;;;;;;;;;;27.88;57.66;99606.59;5031279;28;838;-64
2022/06/06 12:01:38;;;;;;;;;;;;;;;27.14;60.63;99597.72;5030250;28;2030;-64
2022/06/06 12:04:12;;;;;;;;;;;;;;;27.35;62.02;99595.28;5031375;28;827;-64
2022/06/06 12:06:39;;;;;;;;;;;;;;;27.08;65.38;99589.22;5031327;28;810;-62
2022/06/06 12:09:24;;;;;;;;;;;;;;;27.24;66.85;99579.09;5031370;28;964;-62
2022/06/06 12:12:11;;;;;;;;;;;;;;;27.00;68.67;99576.13;5031320;28;1939;-62
2022/06/06 12:14:50;;;;;;;;;;;;;;;28.96;65.17;99578.66;4991021;28;1228;-63
2022/06/06 12:17:33;;;;;;;;;;;;;;;28.95;65.57;99570.66;5013585;28;1373;-63
2022/06/06 12:20:18;;;;;;;;;;;;;;;28.49;64.12;99562.66;5031106;28;854;-63
2022/06/06 12:23:09;;;;;;;;;;;;;;;29.58;59.60;99560.75;5031211;28;928;-64
2022/06/06 12:25:47;;;;;;;;;;;;;;;30.55;55.96;99554.19;5031456;28;798;-64
2022/06/06 12:28:34;;;;;;;;;;;;;;;31.17;55.07;99547.22;5031380;28;896;-64
2022/06/06 12:31:01;;;;;;;;;;;;;;;31.44;54.65;99542.97;5030974;28;1979;-64
2022/06/06 12:33:51;;;;;;;;;;;;;;;32.26;53.41;99542.78;5033839;28;810;-64
2022/06/06 12:36:22;;;;;;;;;;;;;;;32.75;50.28;99555.47;5034806;28;1128;-64
2022/06/06 12:38:52;;;;;;;;;;;;;;;31.46;50.21;99562.41;5034970;28;826;-65
2022/06/06 12:41:31;;;;;;;;;;;;;;;30.91;50.90;99554.50;5034776;28;905;-63
2022/06/06 12:44:04;;;;;;;;;;;;;;;30.08;54.24;99556.28;5034589;28;830;-64
2022/06/06 12:46:46;;;;;;;;;;;;;;;29.32;55.57;99564.25;5034697;28;882;-64
2022/06/06 12:49:19;;;;;;;;;;;;;;;29.50;54.09;99560.59;5034630;28;846;-64
2022/06/06 12:51:57;;;;;;;;;;;;;;;28.68;58.23;99557.00;5034445;28;1914;-64
2022/06/06 12:55:12;;;;;;;;;;;;;;;27.99;54.87;99554.59;5034920;28;846;-63
2022/06/06 12:57:21;;;;;;;;;;;;;;;26.98;57.45;99567.34;5033856;28;1054;-59
2022/06/06 12:59:59;;;;;;;;;;;;;;;25.64;59.78;99567.00;5034386;28;908;-62
2022/06/06 13:02:43;;;;;;;;;;;;;;;24.41;62.36;99587.81;5034363;28;833;-60
2022/06/06 13:05:22;;;;;;;;;;;;;;;23.29;66.05;99591.22;5034194;28;977;-62
2022/06/06 13:08:13;;;;;;;;;;;;;;;22.37;69.30;99598.97;5034312;28;810;-61
2022/06/06 13:10:58;;;;;;;;;;;;;;;21.47;74.46;99599.47;5034223;28;894;-62
2022/06/06 13:13:44;;;;;;;;;;;;;;;20.97;79.53;99591.56;5034096;28;830;-61
2022/06/06 13:16:29;;;;;;;;;;;;;;;20.88;82.25;99581.19;5034034;28;945;-61
2022/06/06 13:18:55;;;;;;;;;;;;;;;20.99;80.86;99573.00;5034308;28;882;-60
2022/06/06 13:21:42;;;;;;;;;;;;;;;21.26;81.00;99568.41;5034216;28;869;-60
2022/06/06 13:24:17;;;;;;;;;;;;;;;21.56;79.32;99563.59;5034158;28;803;-61
2022/06/06 13:26:55;;;;;;;;;;;;;;;21.90;80.39;99554.97;5033873;28;842;-61
2022/06/06 13:29:27;;;;;;;;;;;;;;;22.15;80.30;99550.75;5033679;28;1206;-61
2022/06/06 13:31:57;;;;;;;;;;;;;;;22.27;81.06;99546.09;5033568;28;1915;-61
2022/06/06 13:34:31;;;;;;;;;;;;;;;22.46;81.59;99550.19;5033852;28;846;-61
2022/06/06 13:37:04;;;;;;;;;;;;;;;22.76;81.35;99552.88;5033744;28;819;-61
2022/06/06 13:39:40;;;;;;;;;;;;;;;23.08;81.33;99556.63;5033664;28;803;-61
2022/06/06 13:42:07;;;;;;;;;;;;;;;23.37;79.47;99564.13;5033593;28;851;-61
2022/06/06 13:44:54;;;;;;;;;;;;;;;23.70;79.67;99564.94;5032939;28;906;-62
2022/06/06 13:47:37;;;;;;;;;;;;;;;23.95;79.50;99569.81;5033473;28;1190;-61
2022/06/06 13:50:15;;;;;;;;;;;;;;;24.32;78.64;99563.38;5033713;28;913;-61
2022/06/06 13:53:02;;;;;;;;;;;;;;;24.51;77.24;99560.97;5015551;28;1992;-61
2022/06/06 13:55:30;;;;;;;;;;;;;;;25.18;78.25;99566.13;5033101;28;1908;-61
2022/06/06 13:58:15;;;;;;;;;;;;;;;25.97;76.96;99559.88;5033364;28;811;-61
2022/06/06 14:01:05;;;;;;;;;;;;;;;27.70;71.75;99551.97;5033233;28;799;-61
2022/06/06 14:03:53;;;;;;;;;;;;;;;29.17;62.66;99549.69;5032945;28;1657;-61
2022/06/06 14:06:28;;;;;;;;;;;;;;;29.69;62.48;99534.16;5015376;28;1327;-62
2022/06/06 14:08:58;;;;;;;;;;;;;;;29.67;59.77;99540.38;5015359;28;1245;-60
2022/06/06 14:11:48;;;;;;;;;;;;;;;29.12;62.92;99537.06;5033161;28;1890;-62
2022/06/06 14:14:17;;;;;;;;;;;;;;;27.43;69.45;99541.59;5032988;28;1038;-61
2022/06/06 14:16:47;;;;;;;;;;;;;;;26.72;69.84;99540.16;5033011;28;873;-61
2022/06/06 14:19:19;;;;;;;;;;;;;;;26.19;73.16;99540.00;5032931;28;863;-61
2022/06/06 14:21:54;;;;;;;;;;;;;;;25.99;71.82;99543.09;5032864;28;842;-61
2022/06/06 14:24:22;;;;;;;;;;;;;;;25.74;72.68;99537.19;5033182;28;858;-61
2022/06/06 14:26:53;;;;;;;;;;;;;;;25.32;69.44;99549.47;5032899;28;841;-61
2022/06/06 14:29:36;;;;;;;;;;;;;;;24.97;71.88;99542.16;5032704;28;1351;-61
2022/06/06 14:32:17;;;;;;;;;;;;;;;25.14;73.91;99543.00;5032712;28;1918;-61
2022/06/06 14:34:46;;;;;;;;;;;;;;;25.76;74.68;99548.75;5032706;28;909;-61